sensor_id;sensor_type;location;lat;lon;timestamp;temperature;humidity
10411;DHT22;5251;52.112;8.606;2022-11-20T00:00:56;-1.60;96.50
10411;DHT22;5251;52.112;8.606;2022-11-20T00:03:22;-1.60;96.50
10411;DHT22;5251;52.112;8.606;2022-11-20T00:05:48;-1.60;96.60
10411;DHT22;5251;52.112;8.606;2022-11-20T00:08:14;-1.60;96.60
10411;DHT22;5251;52.112;8.606;2022-11-20T00:10:40;-1.70;96.70
10411;DHT22;5251;52.112;8.606;2022-11-20T00:13:07;-1.70;96.80
10411;DHT22;5251;52.112;8.606;2022-11-20T00:15:33;-1.70;96.80
10411;DHT22;5251;52.112;8.606;2022-11-20T00:17:59;-1.70;96.80
10411;DHT22;5251;52.112;8.606;2022-11-20T00:20:25;-1.70;96.80
10411;DHT22;5251;52.112;8.606;2022-11-20T00:22:50;-1.70;96.80
10411;DHT22;5251;52.112;8.606;2022-11-20T00:25:17;-1.70;96.80
10411;DHT22;5251;52.112;8.606;2022-11-20T00:27:43;-1.70;96.80
10411;DHT22;5251;52.112;8.606;2022-11-20T00:30:09;-1.70;96.80
10411;DHT22;5251;52.112;8.606;2022-11-20T00:32:34;-1.70;96.80
10411;DHT22;5251;52.112;8.606;2022-11-20T00:35:00;-1.70;96.80
10411;DHT22;5251;52.112;8.606;2022-11-20T00:37:26;-1.70;96.80
10411;DHT22;5251;52.112;8.606;2022-11-20T00:39:51;-1.70;96.70
10411;DHT22;5251;52.112;8.606;2022-11-20T00:42:17;-1.80;96.60
10411;DHT22;5251;52.112;8.606;2022-11-20T00:44:42;-1.80;96.60
10411;DHT22;5251;52.112;8.606;2022-11-20T00:47:08;-1.80;96.60
10411;DHT22;5251;52.112;8.606;2022-11-20T00:49:34;-1.80;96.50
10411;DHT22;5251;52.112;8.606;2022-11-20T00:52:00;-1.80;96.50
10411;DHT22;5251;52.112;8.606;2022-11-20T00:54:25;-1.90;96.50
10411;DHT22;5251;52.112;8.606;2022-11-20T00:56:53;-1.90;96.40
10411;DHT22;5251;52.112;8.606;2022-11-20T00:59:18;-1.90;96.40
10411;DHT22;5251;52.112;8.606;2022-11-20T01:01:44;-1.90;96.40
10411;DHT22;5251;52.112;8.606;2022-11-20T01:04:10;-1.90;96.40
10411;DHT22;5251;52.112;8.606;2022-11-20T01:06:37;-2.00;96.30
10411;DHT22;5251;52.112;8.606;2022-11-20T01:09:09;-2.00;96.30
10411;DHT22;5251;52.112;8.606;2022-11-20T01:11:37;-2.00;96.30
10411;DHT22;5251;52.112;8.606;2022-11-20T01:14:06;-2.00;96.50
10411;DHT22;5251;52.112;8.606;2022-11-20T01:16:37;-2.00;96.40
10411;DHT22;5251;52.112;8.606;2022-11-20T01:19:06;-2.00;96.40
10411;DHT22;5251;52.112;8.606;2022-11-20T01:21:34;-2.10;96.40
10411;DHT22;5251;52.112;8.606;2022-11-20T01:24:00;-2.10;96.40
10411;DHT22;5251;52.112;8.606;2022-11-20T01:26:29;-2.10;96.40
10411;DHT22;5251;52.112;8.606;2022-11-20T01:28:55;-2.10;96.40
10411;DHT22;5251;52.112;8.606;2022-11-20T01:31:22;-2.10;96.50
10411;DHT22;5251;52.112;8.606;2022-11-20T01:33:50;-2.10;96.40
10411;DHT22;5251;52.112;8.606;2022-11-20T01:36:17;-2.10;96.40
10411;DHT22;5251;52.112;8.606;2022-11-20T01:38:43;-2.10;96.40
10411;DHT22;5251;52.112;8.606;2022-11-20T01:41:10;-2.10;96.40
10411;DHT22;5251;52.112;8.606;2022-11-20T01:43:36;-2.10;96.40
10411;DHT22;5251;52.112;8.606;2022-11-20T01:46:13;-2.20;96.40
10411;DHT22;5251;52.112;8.606;2022-11-20T01:49:02;-2.20;96.30
10411;DHT22;5251;52.112;8.606;2022-11-20T01:51:38;-2.20;96.30
10411;DHT22;5251;52.112;8.606;2022-11-20T01:54:07;-2.20;96.30
10411;DHT22;5251;52.112;8.606;2022-11-20T01:56:38;-2.20;96.30
10411;DHT22;5251;52.112;8.606;2022-11-20T01:59:05;-2.20;96.30
10411;DHT22;5251;52.112;8.606;2022-11-20T02:01:33;-2.20;96.30
10411;DHT22;5251;52.112;8.606;2022-11-20T02:03:59;-2.20;96.30
10411;DHT22;5251;52.112;8.606;2022-11-20T02:06:35;-2.30;96.20
10411;DHT22;5251;52.112;8.606;2022-11-20T02:09:02;-2.30;96.20
10411;DHT22;5251;52.112;8.606;2022-11-20T02:11:30;-2.30;96.30
10411;DHT22;5251;52.112;8.606;2022-11-20T02:13:56;-2.30;96.20
10411;DHT22;5251;52.112;8.606;2022-11-20T02:16:29;-2.30;96.30
10411;DHT22;5251;52.112;8.606;2022-11-20T02:18:57;-2.30;96.30
10411;DHT22;5251;52.112;8.606;2022-11-20T02:24:18;-2.30;96.40
10411;DHT22;5251;52.112;8.606;2022-11-20T02:26:52;-2.30;96.40
10411;DHT22;5251;52.112;8.606;2022-11-20T02:29:25;-2.40;96.30
10411;DHT22;5251;52.112;8.606;2022-11-20T02:31:51;-2.40;96.30
10411;DHT22;5251;52.112;8.606;2022-11-20T02:34:17;-2.40;96.30
10411;DHT22;5251;52.112;8.606;2022-11-20T02:36:44;-2.40;96.30
10411;DHT22;5251;52.112;8.606;2022-11-20T02:39:13;-2.40;96.30
10411;DHT22;5251;52.112;8.606;2022-11-20T02:41:42;-2.40;96.30
10411;DHT22;5251;52.112;8.606;2022-11-20T02:44:07;-2.40;96.30
10411;DHT22;5251;52.112;8.606;2022-11-20T02:46:34;-2.40;96.40
10411;DHT22;5251;52.112;8.606;2022-11-20T02:49:01;-2.40;96.40
10411;DHT22;5251;52.112;8.606;2022-11-20T02:51:27;-2.40;96.40
10411;DHT22;5251;52.112;8.606;2022-11-20T02:53:53;-2.40;96.40
10411;DHT22;5251;52.112;8.606;2022-11-20T02:56:19;-2.40;96.40
10411;DHT22;5251;52.112;8.606;2022-11-20T02:58:44;-2.40;96.40
10411;DHT22;5251;52.112;8.606;2022-11-20T03:01:10;-2.50;96.30
10411;DHT22;5251;52.112;8.606;2022-11-20T03:03:35;-2.50;96.30
10411;DHT22;5251;52.112;8.606;2022-11-20T03:06:01;-2.50;96.30
10411;DHT22;5251;52.112;8.606;2022-11-20T03:08:27;-2.40;96.30
10411;DHT22;5251;52.112;8.606;2022-11-20T03:10:53;-2.50;96.60
10411;DHT22;5251;52.112;8.606;2022-11-20T03:13:19;-2.50;96.20
10411;DHT22;5251;52.112;8.606;2022-11-20T03:15:44;-2.50;96.20
10411;DHT22;5251;52.112;8.606;2022-11-20T03:18:10;-2.50;96.20
10411;DHT22;5251;52.112;8.606;2022-11-20T03:20:36;-2.50;96.10
10411;DHT22;5251;52.112;8.606;2022-11-20T03:23:01;-2.50;96.10
10411;DHT22;5251;52.112;8.606;2022-11-20T03:25:27;-2.50;96.20
10411;DHT22;5251;52.112;8.606;2022-11-20T03:27:53;-2.50;96.20
10411;DHT22;5251;52.112;8.606;2022-11-20T03:30:19;-2.60;96.10
10411;DHT22;5251;52.112;8.606;2022-11-20T03:32:45;-2.60;96.10
10411;DHT22;5251;52.112;8.606;2022-11-20T03:35:11;-2.60;96.20
10411;DHT22;5251;52.112;8.606;2022-11-20T03:37:36;-2.60;96.20
10411;DHT22;5251;52.112;8.606;2022-11-20T03:40:03;-2.60;96.20
10411;DHT22;5251;52.112;8.606;2022-11-20T03:42:28;-2.60;96.20
10411;DHT22;5251;52.112;8.606;2022-11-20T03:45:17;-2.60;96.20
10411;DHT22;5251;52.112;8.606;2022-11-20T03:47:43;-2.60;96.20
10411;DHT22;5251;52.112;8.606;2022-11-20T03:50:11;-2.60;96.20
10411;DHT22;5251;52.112;8.606;2022-11-20T03:52:38;-2.60;96.20
10411;DHT22;5251;52.112;8.606;2022-11-20T03:55:05;-2.60;96.20
10411;DHT22;5251;52.112;8.606;2022-11-20T03:57:31;-2.60;96.10
10411;DHT22;5251;52.112;8.606;2022-11-20T03:59:56;-2.60;96.10
10411;DHT22;5251;52.112;8.606;2022-11-20T04:02:22;-2.60;96.10
10411;DHT22;5251;52.112;8.606;2022-11-20T04:04:47;-2.70;96.00
10411;DHT22;5251;52.112;8.606;2022-11-20T04:07:13;-2.70;96.00
10411;DHT22;5251;52.112;8.606;2022-11-20T04:09:39;-2.70;96.00
10411;DHT22;5251;52.112;8.606;2022-11-20T04:12:04;-2.70;95.90
10411;DHT22;5251;52.112;8.606;2022-11-20T04:14:30;-2.70;95.90
10411;DHT22;5251;52.112;8.606;2022-11-20T04:16:55;-2.70;95.90
10411;DHT22;5251;52.112;8.606;2022-11-20T04:19:21;-2.70;95.90
10411;DHT22;5251;52.112;8.606;2022-11-20T04:21:46;-2.80;95.90
10411;DHT22;5251;52.112;8.606;2022-11-20T04:24:12;-2.70;95.90
10411;DHT22;5251;52.112;8.606;2022-11-20T04:26:38;-2.70;95.90
10411;DHT22;5251;52.112;8.606;2022-11-20T04:29:04;-2.80;96.20
10411;DHT22;5251;52.112;8.606;2022-11-20T04:31:32;-2.80;95.90
10411;DHT22;5251;52.112;8.606;2022-11-20T04:34:02;-2.80;95.80
10411;DHT22;5251;52.112;8.606;2022-11-20T04:36:29;-2.80;95.90
10411;DHT22;5251;52.112;8.606;2022-11-20T04:38:57;-2.80;95.90
10411;DHT22;5251;52.112;8.606;2022-11-20T04:41:24;-2.80;95.90
10411;DHT22;5251;52.112;8.606;2022-11-20T04:43:53;-2.80;95.90
10411;DHT22;5251;52.112;8.606;2022-11-20T04:46:20;-2.80;95.90
10411;DHT22;5251;52.112;8.606;2022-11-20T04:48:46;-2.80;96.00
10411;DHT22;5251;52.112;8.606;2022-11-20T04:51:12;-2.80;96.10
10411;DHT22;5251;52.112;8.606;2022-11-20T04:53:38;-2.80;96.10
10411;DHT22;5251;52.112;8.606;2022-11-20T04:56:06;-2.80;96.10
10411;DHT22;5251;52.112;8.606;2022-11-20T04:58:33;-2.90;96.10
10411;DHT22;5251;52.112;8.606;2022-11-20T05:01:16;-2.90;96.10
10411;DHT22;5251;52.112;8.606;2022-11-20T05:03:43;-2.90;96.20
10411;DHT22;5251;52.112;8.606;2022-11-20T05:06:15;-2.80;96.20
10411;DHT22;5251;52.112;8.606;2022-11-20T05:08:41;-2.80;96.30
10411;DHT22;5251;52.112;8.606;2022-11-20T05:11:15;-2.90;96.20
10411;DHT22;5251;52.112;8.606;2022-11-20T05:13:41;-2.90;96.20
10411;DHT22;5251;52.112;8.606;2022-11-20T05:16:10;-2.90;96.10
10411;DHT22;5251;52.112;8.606;2022-11-20T05:18:37;-2.90;96.10
10411;DHT22;5251;52.112;8.606;2022-11-20T05:21:04;-2.90;96.10
10411;DHT22;5251;52.112;8.606;2022-11-20T05:23:30;-2.90;96.20
10411;DHT22;5251;52.112;8.606;2022-11-20T05:25:57;-2.90;96.20
10411;DHT22;5251;52.112;8.606;2022-11-20T05:28:24;-2.90;96.20
10411;DHT22;5251;52.112;8.606;2022-11-20T05:30:50;-2.90;96.10
10411;DHT22;5251;52.112;8.606;2022-11-20T05:33:16;-2.90;96.10
10411;DHT22;5251;52.112;8.606;2022-11-20T05:35:41;-2.90;96.10
10411;DHT22;5251;52.112;8.606;2022-11-20T05:38:07;-2.90;96.10
10411;DHT22;5251;52.112;8.606;2022-11-20T05:40:33;-2.90;96.20
10411;DHT22;5251;52.112;8.606;2022-11-20T05:42:59;-2.90;96.30
10411;DHT22;5251;52.112;8.606;2022-11-20T05:45:25;-2.90;96.30
10411;DHT22;5251;52.112;8.606;2022-11-20T05:47:51;-2.90;96.30
10411;DHT22;5251;52.112;8.606;2022-11-20T05:50:16;-2.90;96.30
10411;DHT22;5251;52.112;8.606;2022-11-20T05:52:42;-2.90;96.30
10411;DHT22;5251;52.112;8.606;2022-11-20T05:55:08;-2.90;96.30
10411;DHT22;5251;52.112;8.606;2022-11-20T05:57:33;-2.90;96.30
10411;DHT22;5251;52.112;8.606;2022-11-20T05:59:59;-2.80;96.30
10411;DHT22;5251;52.112;8.606;2022-11-20T06:02:24;-2.80;96.30
10411;DHT22;5251;52.112;8.606;2022-11-20T06:04:50;-2.80;96.30
10411;DHT22;5251;52.112;8.606;2022-11-20T06:07:16;-2.80;96.30
10411;DHT22;5251;52.112;8.606;2022-11-20T06:09:41;-2.80;96.30
10411;DHT22;5251;52.112;8.606;2022-11-20T06:12:07;-2.90;96.20
10411;DHT22;5251;52.112;8.606;2022-11-20T06:14:33;-2.90;96.20
10411;DHT22;5251;52.112;8.606;2022-11-20T06:16:59;-2.90;96.10
10411;DHT22;5251;52.112;8.606;2022-11-20T06:19:25;-2.90;96.10
10411;DHT22;5251;52.112;8.606;2022-11-20T06:21:50;-2.90;96.10
10411;DHT22;5251;52.112;8.606;2022-11-20T06:24:17;-2.90;96.00
10411;DHT22;5251;52.112;8.606;2022-11-20T06:26:43;-2.90;96.10
10411;DHT22;5251;52.112;8.606;2022-11-20T06:29:08;-3.00;96.00
10411;DHT22;5251;52.112;8.606;2022-11-20T06:31:34;-2.90;96.10
10411;DHT22;5251;52.112;8.606;2022-11-20T06:34:06;-3.00;96.00
10411;DHT22;5251;52.112;8.606;2022-11-20T06:36:32;-3.00;96.00
10411;DHT22;5251;52.112;8.606;2022-11-20T06:38:58;-3.00;96.00
10411;DHT22;5251;52.112;8.606;2022-11-20T06:41:24;-3.00;96.00
10411;DHT22;5251;52.112;8.606;2022-11-20T06:43:51;-3.00;96.00
10411;DHT22;5251;52.112;8.606;2022-11-20T06:46:18;-3.00;96.10
10411;DHT22;5251;52.112;8.606;2022-11-20T06:48:45;-3.00;96.20
10411;DHT22;5251;52.112;8.606;2022-11-20T06:51:11;-3.00;96.20
10411;DHT22;5251;52.112;8.606;2022-11-20T06:53:37;-3.00;96.20
10411;DHT22;5251;52.112;8.606;2022-11-20T06:56:02;-3.00;96.20
10411;DHT22;5251;52.112;8.606;2022-11-20T06:58:29;-3.00;96.20
10411;DHT22;5251;52.112;8.606;2022-11-20T07:00:59;-3.00;96.20
10411;DHT22;5251;52.112;8.606;2022-11-20T07:03:25;-3.00;96.20
10411;DHT22;5251;52.112;8.606;2022-11-20T07:05:51;-3.00;96.20
10411;DHT22;5251;52.112;8.606;2022-11-20T07:08:17;-3.00;96.20
10411;DHT22;5251;52.112;8.606;2022-11-20T07:10:42;-3.00;96.20
10411;DHT22;5251;52.112;8.606;2022-11-20T07:13:08;-3.00;96.20
10411;DHT22;5251;52.112;8.606;2022-11-20T07:15:34;-3.00;96.10
10411;DHT22;5251;52.112;8.606;2022-11-20T07:18:00;-3.00;96.10
10411;DHT22;5251;52.112;8.606;2022-11-20T07:20:26;-3.00;96.10
10411;DHT22;5251;52.112;8.606;2022-11-20T07:22:55;-3.00;96.10
10411;DHT22;5251;52.112;8.606;2022-11-20T07:25:22;-3.00;96.20
10411;DHT22;5251;52.112;8.606;2022-11-20T07:27:47;-3.00;96.20
10411;DHT22;5251;52.112;8.606;2022-11-20T07:30:14;-3.00;96.30
10411;DHT22;5251;52.112;8.606;2022-11-20T07:32:40;-2.90;96.40
10411;DHT22;5251;52.112;8.606;2022-11-20T07:35:06;-2.90;96.50
10411;DHT22;5251;52.112;8.606;2022-11-20T07:37:34;-2.80;96.70
10411;DHT22;5251;52.112;8.606;2022-11-20T07:40:00;-2.80;96.90
10411;DHT22;5251;52.112;8.606;2022-11-20T07:42:25;-2.70;97.10
10411;DHT22;5251;52.112;8.606;2022-11-20T07:44:51;-2.70;97.20
10411;DHT22;5251;52.112;8.606;2022-11-20T07:47:16;-2.60;97.40
10411;DHT22;5251;52.112;8.606;2022-11-20T07:49:42;-2.50;97.60
10411;DHT22;5251;52.112;8.606;2022-11-20T07:52:08;-2.40;97.70
10411;DHT22;5251;52.112;8.606;2022-11-20T07:54:33;-2.30;97.70
10411;DHT22;5251;52.112;8.606;2022-11-20T07:56:59;-2.30;97.70
10411;DHT22;5251;52.112;8.606;2022-11-20T07:59:24;-2.10;97.80
10411;DHT22;5251;52.112;8.606;2022-11-20T08:01:50;-2.10;97.80
10411;DHT22;5251;52.112;8.606;2022-11-20T08:04:15;-2.10;97.80
10411;DHT22;5251;52.112;8.606;2022-11-20T08:06:41;-2.00;97.90
10411;DHT22;5251;52.112;8.606;2022-11-20T08:09:07;-1.90;97.90
10411;DHT22;5251;52.112;8.606;2022-11-20T08:11:33;-1.90;98.10
10411;DHT22;5251;52.112;8.606;2022-11-20T08:14:17;-1.80;98.30
10411;DHT22;5251;52.112;8.606;2022-11-20T08:16:45;-1.70;98.50
10411;DHT22;5251;52.112;8.606;2022-11-20T08:19:11;-1.60;98.70
10411;DHT22;5251;52.112;8.606;2022-11-20T08:21:37;-1.50;98.90
10411;DHT22;5251;52.112;8.606;2022-11-20T08:24:03;-1.40;99.20
10411;DHT22;5251;52.112;8.606;2022-11-20T08:26:28;-1.30;99.40
10411;DHT22;5251;52.112;8.606;2022-11-20T08:28:55;-1.10;99.80
10411;DHT22;5251;52.112;8.606;2022-11-20T08:31:22;-0.90;99.90
10411;DHT22;5251;52.112;8.606;2022-11-20T08:33:48;-0.80;99.90
10411;DHT22;5251;52.112;8.606;2022-11-20T08:36:14;-0.60;99.90
10411;DHT22;5251;52.112;8.606;2022-11-20T08:38:39;-0.40;99.90
10411;DHT22;5251;52.112;8.606;2022-11-20T08:41:05;-0.20;99.90
10411;DHT22;5251;52.112;8.606;2022-11-20T08:46:17;0.20;99.90
10411;DHT22;5251;52.112;8.606;2022-11-20T08:48:44;0.30;99.90
10411;DHT22;5251;52.112;8.606;2022-11-20T08:51:10;0.50;99.90
10411;DHT22;5251;52.112;8.606;2022-11-20T08:53:35;0.60;99.90
10411;DHT22;5251;52.112;8.606;2022-11-20T08:56:01;0.80;99.90
10411;DHT22;5251;52.112;8.606;2022-11-20T08:58:27;0.90;99.90
10411;DHT22;5251;52.112;8.606;2022-11-20T09:00:52;1.00;99.90
10411;DHT22;5251;52.112;8.606;2022-11-20T09:03:18;1.10;99.90
10411;DHT22;5251;52.112;8.606;2022-11-20T09:05:44;1.20;99.90
10411;DHT22;5251;52.112;8.606;2022-11-20T09:08:09;1.30;99.90
10411;DHT22;5251;52.112;8.606;2022-11-20T09:10:35;1.40;99.90
10411;DHT22;5251;52.112;8.606;2022-11-20T09:13:01;1.50;99.90
10411;DHT22;5251;52.112;8.606;2022-11-20T09:15:27;1.50;99.90
10411;DHT22;5251;52.112;8.606;2022-11-20T09:17:54;1.60;99.90
10411;DHT22;5251;52.112;8.606;2022-11-20T09:20:20;1.70;99.90
10411;DHT22;5251;52.112;8.606;2022-11-20T09:22:46;1.80;99.90
10411;DHT22;5251;52.112;8.606;2022-11-20T09:25:12;1.90;99.90
10411;DHT22;5251;52.112;8.606;2022-11-20T09:27:37;1.90;99.90
10411;DHT22;5251;52.112;8.606;2022-11-20T09:30:03;2.00;99.90
10411;DHT22;5251;52.112;8.606;2022-11-20T09:32:29;2.10;99.90
10411;DHT22;5251;52.112;8.606;2022-11-20T09:34:55;2.20;99.90
10411;DHT22;5251;52.112;8.606;2022-11-20T09:37:20;2.30;99.90
10411;DHT22;5251;52.112;8.606;2022-11-20T09:39:46;2.40;99.90
10411;DHT22;5251;52.112;8.606;2022-11-20T09:42:33;2.50;99.90
10411;DHT22;5251;52.112;8.606;2022-11-20T09:45:16;2.50;99.90
10411;DHT22;5251;52.112;8.606;2022-11-20T09:48:00;2.60;99.90
10411;DHT22;5251;52.112;8.606;2022-11-20T09:50:33;2.70;99.90
10411;DHT22;5251;52.112;8.606;2022-11-20T09:55:41;2.80;99.90
10411;DHT22;5251;52.112;8.606;2022-11-20T09:58:15;2.80;99.90
10411;DHT22;5251;52.112;8.606;2022-11-20T10:00:42;2.90;99.90
10411;DHT22;5251;52.112;8.606;2022-11-20T10:03:17;2.90;99.90
10411;DHT22;5251;52.112;8.606;2022-11-20T10:05:55;3.00;99.90
10411;DHT22;5251;52.112;8.606;2022-11-20T10:08:27;3.10;99.90
10411;DHT22;5251;52.112;8.606;2022-11-20T10:11:06;3.10;99.90
10411;DHT22;5251;52.112;8.606;2022-11-20T10:19:07;3.40;99.90
10411;DHT22;5251;52.112;8.606;2022-11-20T10:24:48;3.60;99.90
10411;DHT22;5251;52.112;8.606;2022-11-20T10:30:21;3.90;99.90
10411;DHT22;5251;52.112;8.606;2022-11-20T10:32:53;4.00;99.90
10411;DHT22;5251;52.112;8.606;2022-11-20T10:38:28;4.10;99.90
10411;DHT22;5251;52.112;8.606;2022-11-20T10:40:59;4.20;99.90
10411;DHT22;5251;52.112;8.606;2022-11-20T10:43:46;4.30;99.90
10411;DHT22;5251;52.112;8.606;2022-11-20T10:46:39;4.40;99.90
10411;DHT22;5251;52.112;8.606;2022-11-20T10:49:14;4.40;99.80
10411;DHT22;5251;52.112;8.606;2022-11-20T10:55:32;4.60;99.70
10411;DHT22;5251;52.112;8.606;2022-11-20T11:00:32;4.70;99.40
10411;DHT22;5251;52.112;8.606;2022-11-20T11:02:58;4.80;99.60
10411;DHT22;5251;52.112;8.606;2022-11-20T11:05:39;4.90;99.30
10411;DHT22;5251;52.112;8.606;2022-11-20T11:08:15;4.90;99.10
10411;DHT22;5251;52.112;8.606;2022-11-20T11:13:22;5.00;98.50
10411;DHT22;5251;52.112;8.606;2022-11-20T11:15:49;5.00;98.20
10411;DHT22;5251;52.112;8.606;2022-11-20T11:18:32;5.10;98.40
10411;DHT22;5251;52.112;8.606;2022-11-20T11:21:00;5.10;98.00
10411;DHT22;5251;52.112;8.606;2022-11-20T11:23:32;5.20;98.10
10411;DHT22;5251;52.112;8.606;2022-11-20T11:26:00;5.20;98.10
10411;DHT22;5251;52.112;8.606;2022-11-20T11:28:27;5.30;98.10
10411;DHT22;5251;52.112;8.606;2022-11-20T11:30:53;5.40;98.00
10411;DHT22;5251;52.112;8.606;2022-11-20T11:33:25;5.40;98.00
10411;DHT22;5251;52.112;8.606;2022-11-20T11:35:53;5.50;98.00
10411;DHT22;5251;52.112;8.606;2022-11-20T11:38:29;5.50;97.90
10411;DHT22;5251;52.112;8.606;2022-11-20T11:40:57;5.60;97.70
10411;DHT22;5251;52.112;8.606;2022-11-20T11:43:26;5.70;97.90
10411;DHT22;5251;52.112;8.606;2022-11-20T11:46:34;5.70;97.60
10411;DHT22;5251;52.112;8.606;2022-11-20T11:54:57;6.00;97.50
10411;DHT22;5251;52.112;8.606;2022-11-20T11:57:26;6.10;97.30
10411;DHT22;5251;52.112;8.606;2022-11-20T12:08:02;6.20;95.90
10411;DHT22;5251;52.112;8.606;2022-11-20T12:13:08;6.20;95.10
10411;DHT22;5251;52.112;8.606;2022-11-20T12:15:42;6.10;94.80
10411;DHT22;5251;52.112;8.606;2022-11-20T12:18:15;6.10;94.50
10411;DHT22;5251;52.112;8.606;2022-11-20T12:21:31;6.00;94.30
10411;DHT22;5251;52.112;8.606;2022-11-20T12:26:44;5.90;94.10
10411;DHT22;5251;52.112;8.606;2022-11-20T12:41:05;5.70;93.70
10411;DHT22;5251;52.112;8.606;2022-11-20T12:43:26;5.60;93.70
10411;DHT22;5251;52.112;8.606;2022-11-20T12:54:40;5.40;94.10
10411;DHT22;5251;52.112;8.606;2022-11-20T12:57:29;5.40;93.90
10411;DHT22;5251;52.112;8.606;2022-11-20T13:06:03;5.20;93.90
10411;DHT22;5251;52.112;8.606;2022-11-20T13:08:37;5.20;93.90
10411;DHT22;5251;52.112;8.606;2022-11-20T13:14:34;5.20;94.30
10411;DHT22;5251;52.112;8.606;2022-11-20T13:19:12;5.20;94.20
10411;DHT22;5251;52.112;8.606;2022-11-20T13:21:40;5.20;94.30
10411;DHT22;5251;52.112;8.606;2022-11-20T13:24:28;5.20;94.40
10411;DHT22;5251;52.112;8.606;2022-11-20T13:29:29;5.20;94.30
10411;DHT22;5251;52.112;8.606;2022-11-20T13:32:14;5.20;94.30
10411;DHT22;5251;52.112;8.606;2022-11-20T13:34:55;5.10;94.20
10411;DHT22;5251;52.112;8.606;2022-11-20T13:37:34;5.10;94.10
10411;DHT22;5251;52.112;8.606;2022-11-20T13:42:45;5.00;94.00
10411;DHT22;5251;52.112;8.606;2022-11-20T13:45:26;5.00;94.10
10411;DHT22;5251;52.112;8.606;2022-11-20T13:47:53;5.00;94.10
10411;DHT22;5251;52.112;8.606;2022-11-20T13:50:39;5.00;94.30
10411;DHT22;5251;52.112;8.606;2022-11-20T13:56:01;4.90;94.40
10411;DHT22;5251;52.112;8.606;2022-11-20T14:01:17;4.80;94.30
10411;DHT22;5251;52.112;8.606;2022-11-20T14:03:44;4.80;94.30
10411;DHT22;5251;52.112;8.606;2022-11-20T14:06:28;4.80;94.30
10411;DHT22;5251;52.112;8.606;2022-11-20T14:08:55;4.70;94.30
10411;DHT22;5251;52.112;8.606;2022-11-20T14:11:24;4.70;94.30
10411;DHT22;5251;52.112;8.606;2022-11-20T14:14:21;4.70;94.30
10411;DHT22;5251;52.112;8.606;2022-11-20T14:16:46;4.60;94.40
10411;DHT22;5251;52.112;8.606;2022-11-20T14:19:30;4.60;94.40
10411;DHT22;5251;52.112;8.606;2022-11-20T14:22:22;4.60;94.40
10411;DHT22;5251;52.112;8.606;2022-11-20T14:27:41;4.60;94.50
10411;DHT22;5251;52.112;8.606;2022-11-20T14:30:17;4.50;94.50
10411;DHT22;5251;52.112;8.606;2022-11-20T14:32:45;4.50;94.50
10411;DHT22;5251;52.112;8.606;2022-11-20T14:35:31;4.50;94.50
10411;DHT22;5251;52.112;8.606;2022-11-20T14:38:01;4.50;94.60
10411;DHT22;5251;52.112;8.606;2022-11-20T14:40:32;4.40;94.70
10411;DHT22;5251;52.112;8.606;2022-11-20T14:43:00;4.40;94.70
10411;DHT22;5251;52.112;8.606;2022-11-20T14:45:26;4.40;94.70
10411;DHT22;5251;52.112;8.606;2022-11-20T14:47:55;4.40;94.80
10411;DHT22;5251;52.112;8.606;2022-11-20T14:50:25;4.40;94.90
10411;DHT22;5251;52.112;8.606;2022-11-20T14:52:53;4.40;95.00
10411;DHT22;5251;52.112;8.606;2022-11-20T14:58:06;4.50;95.10
10411;DHT22;5251;52.112;8.606;2022-11-20T15:00:57;4.50;95.10
10411;DHT22;5251;52.112;8.606;2022-11-20T15:03:30;4.50;95.00
10411;DHT22;5251;52.112;8.606;2022-11-20T15:05:56;4.40;95.20
10411;DHT22;5251;52.112;8.606;2022-11-20T15:08:21;4.40;94.70
10411;DHT22;5251;52.112;8.606;2022-11-20T15:10:48;4.40;94.70
10411;DHT22;5251;52.112;8.606;2022-11-20T15:13:51;4.40;94.60
10411;DHT22;5251;52.112;8.606;2022-11-20T15:16:19;4.40;94.50
10411;DHT22;5251;52.112;8.606;2022-11-20T15:18:45;4.30;94.50
10411;DHT22;5251;52.112;8.606;2022-11-20T15:21:12;4.30;94.60
10411;DHT22;5251;52.112;8.606;2022-11-20T15:23:38;4.30;94.70
10411;DHT22;5251;52.112;8.606;2022-11-20T15:26:05;4.30;94.70
10411;DHT22;5251;52.112;8.606;2022-11-20T15:28:42;4.30;94.70
10411;DHT22;5251;52.112;8.606;2022-11-20T15:31:13;4.20;94.80
10411;DHT22;5251;52.112;8.606;2022-11-20T15:33:39;4.30;95.00
10411;DHT22;5251;52.112;8.606;2022-11-20T15:36:05;4.30;95.10
10411;DHT22;5251;52.112;8.606;2022-11-20T15:38:30;4.30;95.20
10411;DHT22;5251;52.112;8.606;2022-11-20T15:40:56;4.30;95.20
10411;DHT22;5251;52.112;8.606;2022-11-20T15:43:22;4.30;95.30
10411;DHT22;5251;52.112;8.606;2022-11-20T15:45:53;4.30;95.30
10411;DHT22;5251;52.112;8.606;2022-11-20T15:48:21;4.30;95.30
10411;DHT22;5251;52.112;8.606;2022-11-20T15:50:58;4.30;95.30
10411;DHT22;5251;52.112;8.606;2022-11-20T15:53:24;4.20;95.20
10411;DHT22;5251;52.112;8.606;2022-11-20T15:55:49;4.30;95.20
10411;DHT22;5251;52.112;8.606;2022-11-20T15:58:15;4.20;95.10
10411;DHT22;5251;52.112;8.606;2022-11-20T16:00:42;4.20;95.10
10411;DHT22;5251;52.112;8.606;2022-11-20T16:03:12;4.10;95.10
10411;DHT22;5251;52.112;8.606;2022-11-20T16:05:38;4.10;95.10
10411;DHT22;5251;52.112;8.606;2022-11-20T16:08:03;4.00;95.10
10411;DHT22;5251;52.112;8.606;2022-11-20T16:10:29;4.00;95.10
10411;DHT22;5251;52.112;8.606;2022-11-20T16:12:55;4.00;95.30
10411;DHT22;5251;52.112;8.606;2022-11-20T16:15:39;3.90;95.40
10411;DHT22;5251;52.112;8.606;2022-11-20T16:18:12;3.90;95.90
10411;DHT22;5251;52.112;8.606;2022-11-20T16:20:38;3.90;95.70
10411;DHT22;5251;52.112;8.606;2022-11-20T16:23:04;3.90;95.70
10411;DHT22;5251;52.112;8.606;2022-11-20T16:25:30;3.90;95.80
10411;DHT22;5251;52.112;8.606;2022-11-20T16:27:55;3.90;96.00
10411;DHT22;5251;52.112;8.606;2022-11-20T16:30:21;4.00;96.20
10411;DHT22;5251;52.112;8.606;2022-11-20T16:32:47;4.00;96.20
10411;DHT22;5251;52.112;8.606;2022-11-20T16:35:13;4.00;96.20
10411;DHT22;5251;52.112;8.606;2022-11-20T16:37:38;4.00;96.30
10411;DHT22;5251;52.112;8.606;2022-11-20T16:40:05;4.00;96.30
10411;DHT22;5251;52.112;8.606;2022-11-20T16:42:34;4.10;96.40
10411;DHT22;5251;52.112;8.606;2022-11-20T16:45:00;4.10;96.40
10411;DHT22;5251;52.112;8.606;2022-11-20T16:47:26;4.10;96.50
10411;DHT22;5251;52.112;8.606;2022-11-20T16:49:51;4.20;96.50
10411;DHT22;5251;52.112;8.606;2022-11-20T16:52:17;4.20;96.50
10411;DHT22;5251;52.112;8.606;2022-11-20T16:54:43;4.20;96.50
10411;DHT22;5251;52.112;8.606;2022-11-20T16:57:08;4.30;96.70
10411;DHT22;5251;52.112;8.606;2022-11-20T16:59:34;4.30;96.70
10411;DHT22;5251;52.112;8.606;2022-11-20T17:01:59;4.30;96.70
10411;DHT22;5251;52.112;8.606;2022-11-20T17:04:25;4.40;97.00
10411;DHT22;5251;52.112;8.606;2022-11-20T17:06:50;4.40;96.60
10411;DHT22;5251;52.112;8.606;2022-11-20T17:09:16;4.40;96.60
10411;DHT22;5251;52.112;8.606;2022-11-20T17:11:42;4.50;96.70
10411;DHT22;5251;52.112;8.606;2022-11-20T17:14:10;4.50;96.70
10411;DHT22;5251;52.112;8.606;2022-11-20T17:16:36;4.50;96.60
10411;DHT22;5251;52.112;8.606;2022-11-20T17:19:02;4.50;96.60
10411;DHT22;5251;52.112;8.606;2022-11-20T17:21:33;4.60;96.70
10411;DHT22;5251;52.112;8.606;2022-11-20T17:24:01;4.60;96.70
10411;DHT22;5251;52.112;8.606;2022-11-20T17:26:30;4.60;96.70
10411;DHT22;5251;52.112;8.606;2022-11-20T17:29:02;4.60;96.70
10411;DHT22;5251;52.112;8.606;2022-11-20T17:31:29;4.70;96.70
10411;DHT22;5251;52.112;8.606;2022-11-20T17:33:56;4.60;96.60
10411;DHT22;5251;52.112;8.606;2022-11-20T17:36:24;4.70;96.60
10411;DHT22;5251;52.112;8.606;2022-11-20T17:38:49;4.70;96.60
10411;DHT22;5251;52.112;8.606;2022-11-20T17:41:20;4.70;96.60